createdAt,value
2019-05-11T00:00:17.962Z,3.37
2019-05-11T00:02:47.139Z,3.60
2019-05-11T00:05:16.365Z,3.50
2019-05-11T00:07:45.543Z,3.70
2019-05-11T00:10:14.784Z,3.77
2019-05-11T00:12:43.972Z,3.47
2019-05-11T00:15:13.424Z,3.53
2019-05-11T00:17:42.644Z,3.67
2019-05-11T00:20:12.212Z,3.57
2019-05-11T00:22:41.426Z,2.90
2019-05-11T00:25:10.677Z,3.63
2019-05-11T00:27:39.851Z,3.50
2019-05-11T00:30:28.311Z,3.27
2019-05-11T00:32:57.491Z,3.10
2019-05-11T00:35:26.685Z,3.50
2019-05-11T00:37:55.874Z,3.17
2019-05-11T00:40:25.045Z,3.50
2019-05-11T00:42:54.224Z,3.37
2019-05-11T00:45:24.413Z,3.90
2019-05-11T00:47:53.596Z,3.50
2019-05-11T00:50:37.930Z,3.90
2019-05-11T00:52:54.199Z,3.40
2019-05-11T00:55:23.394Z,3.60
2019-05-11T00:57:52.579Z,3.27
2019-05-11T01:00:21.822Z,3.37
2019-05-11T01:02:51.009Z,2.87
2019-05-11T01:05:20.181Z,4.03
2019-05-11T01:07:49.368Z,3.47
2019-05-11T01:10:25.620Z,3.80
2019-05-11T01:12:49.608Z,3.40
2019-05-11T01:15:19.212Z,3.40
2019-05-11T01:17:48.476Z,4.07
2019-05-11T01:20:18.807Z,3.87
2019-05-11T01:22:48.083Z,3.50
2019-05-11T01:25:17.324Z,4.17
2019-05-11T01:27:46.629Z,4.17
2019-05-11T01:30:16.737Z,3.90
2019-05-11T01:32:46.040Z,3.37
2019-05-11T01:35:16.854Z,4.77
2019-05-11T01:37:46.135Z,4.63
2019-05-11T01:40:15.658Z,3.80
2019-05-11T01:42:44.977Z,4.60
2019-05-11T01:45:14.341Z,4.50
2019-05-11T01:48:01.990Z,4.33
2019-05-11T01:50:31.201Z,3.80
2019-05-11T01:53:02.509Z,4.27
2019-05-11T01:55:31.671Z,4.83
2019-05-11T01:58:00.841Z,4.93
2019-05-11T02:00:30.110Z,4.80
2019-05-11T02:03:00.209Z,4.70
2019-05-11T02:05:32.386Z,5.07
2019-05-11T02:08:02.807Z,5.67
2019-05-11T02:10:32.443Z,6.13
2019-05-11T02:13:01.627Z,5.27
2019-05-11T02:15:30.854Z,5.03
2019-05-11T02:18:00.069Z,5.17
2019-05-11T02:20:29.250Z,5.57
2019-05-11T02:22:58.433Z,5.40
2019-05-11T02:25:27.632Z,5.27
2019-05-11T02:27:56.804Z,5.40
2019-05-11T02:30:26.075Z,5.10
2019-05-11T02:32:55.234Z,5.40
2019-05-11T02:35:24.425Z,6.50
2019-05-11T02:37:53.621Z,6.47
2019-05-11T02:40:23.022Z,6.20
2019-05-11T02:42:53.114Z,6.57
2019-05-11T02:45:33.517Z,6.70
2019-05-11T02:48:02.770Z,6.60
2019-05-11T02:50:32.686Z,6.67
2019-05-11T02:53:03.474Z,7.20
2019-05-11T02:55:34.551Z,6.70
2019-05-11T02:58:05.162Z,6.47
2019-05-11T03:00:42.453Z,6.90
2019-05-11T03:03:12.187Z,6.90
2019-05-11T03:05:41.526Z,6.60
2019-05-11T03:08:10.709Z,6.77
2019-05-11T03:10:39.910Z,6.30
2019-05-11T03:13:09.054Z,6.60
2019-05-11T03:15:38.324Z,5.93
2019-05-11T03:18:07.495Z,6.17
2019-05-11T03:20:37.447Z,5.53
2019-05-11T03:23:06.636Z,6.03
2019-05-11T03:25:35.808Z,6.30
2019-05-11T03:28:05.079Z,5.57
2019-05-11T03:30:34.257Z,5.27
2019-05-11T03:33:03.451Z,5.63
2019-05-11T03:35:32.600Z,5.20
2019-05-11T03:38:01.812Z,6.67
2019-05-11T03:40:30.966Z,5.00
2019-05-11T03:43:00.148Z,5.33
2019-05-11T03:45:29.319Z,5.93
2019-05-11T03:47:58.490Z,5.07
2019-05-11T03:50:27.668Z,5.70
2019-05-11T03:52:56.864Z,5.67
2019-05-11T03:55:27.069Z,5.27
2019-05-11T03:57:56.403Z,5.33
2019-05-11T04:00:25.715Z,5.50
2019-05-11T04:02:54.892Z,5.50
2019-05-11T04:05:24.057Z,5.63
2019-05-11T04:07:53.158Z,6.10
2019-05-11T04:10:25.108Z,5.30
2019-05-11T04:12:53.214Z,5.97
2019-05-11T04:15:22.528Z,5.90
2019-05-11T04:17:51.723Z,5.27
2019-05-11T04:20:20.894Z,5.50
2019-05-11T04:22:50.075Z,6.00
2019-05-11T04:25:19.243Z,5.73
2019-05-11T04:27:48.439Z,5.50
2019-05-11T04:30:20.134Z,5.93
2019-05-11T04:32:49.351Z,4.87
2019-05-11T04:35:18.512Z,5.80
2019-05-11T04:37:47.702Z,4.93
2019-05-11T04:40:17.010Z,5.90
2019-05-11T04:42:55.213Z,5.03
2019-05-11T04:45:17.106Z,4.90
2019-05-11T04:47:46.303Z,5.53
2019-05-11T04:50:15.537Z,5.13
2019-05-11T04:52:44.726Z,5.90
2019-05-11T04:55:14.001Z,5.83
2019-05-11T04:57:43.176Z,6.33
2019-05-11T05:00:12.986Z,5.53
2019-05-11T05:02:44.155Z,5.80
2019-05-11T05:05:13.500Z,5.33
2019-05-11T05:07:49.005Z,5.13
2019-05-11T05:10:19.356Z,5.90
2019-05-11T05:12:50.371Z,5.20
2019-05-11T05:15:15.631Z,5.80
2019-05-11T05:17:44.820Z,4.77
2019-05-11T05:20:14.824Z,5.47
2019-05-11T05:22:44.025Z,5.07
2019-05-11T05:25:13.265Z,4.93
2019-05-11T05:27:42.426Z,4.83
2019-05-11T05:30:12.066Z,4.63
2019-05-11T05:32:41.278Z,4.73
2019-05-11T05:35:10.556Z,4.70
2019-05-11T05:37:39.742Z,5.47
2019-05-11T05:40:09.054Z,5.37
2019-05-11T05:42:38.240Z,5.27
2019-05-11T05:45:07.760Z,5.20
2019-05-11T05:47:36.971Z,6.00
2019-05-11T05:50:07.478Z,5.90
2019-05-11T05:52:36.588Z,5.40
2019-05-11T05:55:06.941Z,4.67
2019-05-11T05:57:36.093Z,5.07
2019-05-11T06:00:05.998Z,5.43
2019-05-11T06:02:35.178Z,5.00
2019-05-11T06:05:07.016Z,6.20
2019-05-11T06:07:36.200Z,5.33
2019-05-11T06:10:08.908Z,6.17
2019-05-11T06:12:38.125Z,4.87
2019-05-11T06:15:08.134Z,6.10
2019-05-11T06:17:37.298Z,4.93
2019-05-11T06:20:07.839Z,6.17
2019-05-11T06:22:37.596Z,5.70
2019-05-11T06:25:07.127Z,5.27
2019-05-11T06:27:36.361Z,5.93
2019-05-11T06:30:06.881Z,6.27
2019-05-11T06:32:36.053Z,6.07
2019-05-11T06:35:09.532Z,5.73
2019-05-11T06:37:38.729Z,7.10
2019-05-11T06:40:08.446Z,6.83
2019-05-11T06:42:37.682Z,6.13
2019-05-11T06:45:07.233Z,6.37
2019-05-11T06:47:37.213Z,6.07
2019-05-11T06:50:06.585Z,6.17
2019-05-11T06:52:35.783Z,6.67
2019-05-11T06:55:05.521Z,6.27
2019-05-11T06:57:34.715Z,5.77
2019-05-11T07:00:05.423Z,5.93
2019-05-11T07:02:34.701Z,4.77
2019-05-11T07:05:04.952Z,6.40
2019-05-11T07:07:46.571Z,6.77
2019-05-11T07:10:08.166Z,6.53
2019-05-11T07:12:37.339Z,6.80
2019-05-11T07:15:07.594Z,6.77
2019-05-11T07:17:36.855Z,6.10
2019-05-11T07:20:08.550Z,6.40
2019-05-11T07:22:38.693Z,5.90
2019-05-11T07:25:08.026Z,6.70
2019-05-11T07:27:37.360Z,6.27
2019-05-11T07:30:11.149Z,5.77
2019-05-11T07:32:40.322Z,5.30
2019-05-11T07:35:10.767Z,5.50
2019-05-11T07:37:39.943Z,5.87
2019-05-11T07:40:09.569Z,6.57
2019-05-11T07:42:38.754Z,6.27
2019-05-11T07:45:09.537Z,5.90
2019-05-11T07:47:38.823Z,5.83
2019-05-11T07:50:08.744Z,5.37
2019-05-11T07:52:38.122Z,6.00
2019-05-11T07:55:08.687Z,5.83
2019-05-11T07:57:38.971Z,5.07
2019-05-11T08:00:09.050Z,4.70
2019-05-11T08:02:38.830Z,5.33
2019-05-11T08:05:09.465Z,4.80
2019-05-11T08:07:38.567Z,4.40
2019-05-11T08:10:08.458Z,3.57
2019-05-11T08:12:39.087Z,4.17
2019-05-11T08:15:13.314Z,4.27
2019-05-11T08:17:40.127Z,4.20
2019-05-11T08:20:09.709Z,4.53
2019-05-11T08:22:38.934Z,4.30
2019-05-11T08:25:14.348Z,4.47
2019-05-11T08:27:44.511Z,4.13
2019-05-11T08:30:14.795Z,3.93
2019-05-11T08:32:43.991Z,3.97
2019-05-11T08:35:13.444Z,3.77
2019-05-11T08:37:42.633Z,3.80
2019-05-11T08:40:13.797Z,4.70
2019-05-11T08:42:42.992Z,3.57
2019-05-11T08:45:20.331Z,4.40
2019-05-11T08:47:43.234Z,4.47
2019-05-11T08:50:15.225Z,4.33
2019-05-11T08:52:43.673Z,4.03
2019-05-11T08:55:13.432Z,3.90
2019-05-11T08:57:42.598Z,5.00
2019-05-11T09:00:19.794Z,4.60
2019-05-11T09:02:50.800Z,4.60
2019-05-11T09:05:19.887Z,4.60
2019-05-11T09:07:49.061Z,3.90
2019-05-11T09:10:20.484Z,3.77
2019-05-11T09:12:49.775Z,3.70
2019-05-11T09:15:32.508Z,3.93
2019-05-11T09:17:50.877Z,4.60
2019-05-11T09:20:20.347Z,4.10
2019-05-11T09:22:49.525Z,3.63
2019-05-11T09:25:18.722Z,4.17
2019-05-11T09:27:48.453Z,4.30
2019-05-11T09:30:18.550Z,4.93
2019-05-11T09:32:47.995Z,4.00
2019-05-11T09:35:18.870Z,4.07
2019-05-11T09:37:48.553Z,3.77
2019-05-11T09:40:18.495Z,5.73
2019-05-11T09:42:48.022Z,4.13
2019-05-11T09:45:18.655Z,4.33
2019-05-11T09:47:48.192Z,4.47
2019-05-11T09:50:18.054Z,4.80
2019-05-11T09:52:49.381Z,4.80
2019-05-11T09:55:19.193Z,4.20
2019-05-11T09:57:49.532Z,4.97
2019-05-11T10:00:19.150Z,4.83
2019-05-11T10:02:50.301Z,4.53
2019-05-11T10:05:19.510Z,4.00
2019-05-11T10:07:48.807Z,4.77
2019-05-11T10:10:19.121Z,4.00
2019-05-11T10:12:49.675Z,4.00
2019-05-11T10:15:19.468Z,3.60
2019-05-11T10:17:48.636Z,3.40
2019-05-11T10:20:18.363Z,3.77
2019-05-11T10:22:50.535Z,3.50
2019-05-11T10:25:19.724Z,3.87
2019-05-11T10:27:49.213Z,4.00
2019-05-11T10:30:18.821Z,4.33
2019-05-11T10:32:48.520Z,4.30
2019-05-11T10:35:18.485Z,3.53
2019-05-11T10:37:48.031Z,4.47
2019-05-11T10:40:19.033Z,4.03
2019-05-11T10:42:48.572Z,3.80
2019-05-11T10:45:18.160Z,3.87
2019-05-11T10:47:48.902Z,3.97
2019-05-11T10:50:18.835Z,3.80
2019-05-11T10:52:48.509Z,4.10
2019-05-11T10:55:19.438Z,3.83
2019-05-11T10:57:48.966Z,3.90
2019-05-11T11:00:18.972Z,3.17
2019-05-11T11:02:48.147Z,3.80
2019-05-11T11:05:18.759Z,3.50
2019-05-11T11:07:48.498Z,3.77
2019-05-11T11:10:18.390Z,3.07
2019-05-11T11:12:49.026Z,3.40
2019-05-11T11:15:19.936Z,3.40
2019-05-11T11:17:50.141Z,3.13
2019-05-11T11:20:19.482Z,4.53
2019-05-11T11:22:48.746Z,3.60
2019-05-11T11:25:19.921Z,3.13
2019-05-11T11:27:49.052Z,4.10
2019-05-11T11:30:19.286Z,3.20
2019-05-11T11:32:48.546Z,3.60
2019-05-11T11:35:18.700Z,2.90
2019-05-11T11:37:48.166Z,3.50
2019-05-11T11:40:17.920Z,3.30
2019-05-11T11:42:47.819Z,2.80
2019-05-11T11:45:18.270Z,2.90
2019-05-11T11:47:49.325Z,3.60
2019-05-11T11:50:19.189Z,3.10
2019-05-11T11:53:08.366Z,2.60
2019-05-11T11:55:59.400Z,3.20
2019-05-11T11:58:28.668Z,3.23
2019-05-11T12:00:58.680Z,3.20
2019-05-11T12:03:27.933Z,2.70
2019-05-11T12:05:58.121Z,2.33
2019-05-11T12:08:28.319Z,2.63
2019-05-11T12:10:58.920Z,2.53
2019-05-11T12:13:30.250Z,2.70
2019-05-11T12:15:59.431Z,2.70
2019-05-11T12:18:29.511Z,3.40
2019-05-11T12:20:58.846Z,4.13
2019-05-11T12:23:28.447Z,3.13
2019-05-11T12:25:58.136Z,2.60
2019-05-11T12:28:27.748Z,2.70
2019-05-11T12:30:58.560Z,2.73
2019-05-11T12:33:28.020Z,3.00
2019-05-11T12:35:58.678Z,2.93
2019-05-11T12:38:28.028Z,3.03
2019-05-11T12:40:57.930Z,3.77
2019-05-11T12:43:27.758Z,2.60
2019-05-11T12:45:58.735Z,2.87
2019-05-11T12:48:28.536Z,2.43
2019-05-11T12:50:58.782Z,2.60
2019-05-11T12:53:28.147Z,2.80
2019-05-11T12:55:58.964Z,2.93
2019-05-11T12:58:28.257Z,2.73
2019-05-11T13:00:58.536Z,3.07
2019-05-11T13:03:27.993Z,2.93
2019-05-11T13:05:58.565Z,2.50
2019-05-11T13:08:27.914Z,2.90
2019-05-11T13:10:58.461Z,2.70
2019-05-11T13:13:28.599Z,2.33
2019-05-11T13:15:58.492Z,2.67
2019-05-11T13:18:28.074Z,2.80
2019-05-11T13:20:58.813Z,2.70
2019-05-11T13:23:28.165Z,2.53
2019-05-11T13:25:58.562Z,2.90
2019-05-11T13:28:29.485Z,2.77
2019-05-11T13:30:58.685Z,3.07
2019-05-11T13:33:28.122Z,2.80
2019-05-11T13:35:58.006Z,2.73
2019-05-11T13:38:28.300Z,2.70
2019-05-11T13:40:59.025Z,2.70
2019-05-11T13:43:33.008Z,2.73
2019-05-11T13:45:59.336Z,2.60
2019-05-11T13:48:28.521Z,2.87
2019-05-11T13:50:58.231Z,2.40
2019-05-11T13:53:27.730Z,3.60
2019-05-11T13:55:58.632Z,2.70
2019-05-11T13:58:28.956Z,2.57
2019-05-11T14:00:58.471Z,2.40
2019-05-11T14:03:27.848Z,2.37
2019-05-11T14:05:58.262Z,2.93
2019-05-11T14:08:27.875Z,2.73
2019-05-11T14:10:58.012Z,2.57
2019-05-11T14:13:28.622Z,2.47
2019-05-11T14:15:58.674Z,2.20
2019-05-11T14:18:28.279Z,2.60
2019-05-11T14:20:58.611Z,2.50
2019-05-11T14:23:31.101Z,2.53
2019-05-11T14:26:03.840Z,2.90
2019-05-11T14:28:29.690Z,2.90
2019-05-11T14:30:58.887Z,2.70
2019-05-11T14:33:28.402Z,2.43
2019-05-11T14:35:57.975Z,2.80
2019-05-11T14:38:28.858Z,2.90
2019-05-11T14:40:58.700Z,2.60
2019-05-11T14:43:27.966Z,3.10
2019-05-11T14:45:57.795Z,2.30
2019-05-11T14:48:30.057Z,2.43
2019-05-11T14:50:59.257Z,2.50
2019-05-11T14:53:29.798Z,2.40
2019-05-11T14:55:59.030Z,2.40
2019-05-11T14:58:28.309Z,2.60
2019-05-11T15:00:58.397Z,2.03
2019-05-11T15:03:28.762Z,2.50
2019-05-11T15:05:58.361Z,2.40
2019-05-11T15:08:28.761Z,2.27
2019-05-11T15:10:59.198Z,2.60
2019-05-11T15:13:28.902Z,2.00
2019-05-11T15:15:58.725Z,2.20
2019-05-11T15:18:36.094Z,2.30
2019-05-11T15:20:59.216Z,2.73
2019-05-11T15:23:28.633Z,2.07
2019-05-11T15:25:58.687Z,2.53
2019-05-11T15:28:28.540Z,2.50
2019-05-11T15:30:58.688Z,2.57
2019-05-11T15:33:28.136Z,2.23
2019-05-11T15:35:58.267Z,1.97
2019-05-11T15:38:28.384Z,1.93
2019-05-11T15:40:58.026Z,1.93
2019-05-11T15:43:28.204Z,2.37
2019-05-11T15:45:57.972Z,2.03
2019-05-11T15:48:27.240Z,2.30
2019-05-11T15:50:57.815Z,2.40
2019-05-11T15:53:27.212Z,2.30
2019-05-11T15:55:59.552Z,2.10
2019-05-11T15:58:29.129Z,2.07
2019-05-11T16:00:58.836Z,2.40
2019-05-11T16:03:28.154Z,2.40
2019-05-11T16:05:58.256Z,2.50
2019-05-11T16:08:28.315Z,2.23
2019-05-11T16:10:57.893Z,2.47
2019-05-11T16:13:28.477Z,1.87
2019-05-11T16:15:57.890Z,2.23
2019-05-11T16:18:27.094Z,2.20
2019-05-11T16:20:58.174Z,1.90
2019-05-11T16:23:28.379Z,2.50
2019-05-11T16:25:58.161Z,1.90
2019-05-11T16:28:30.594Z,2.30
2019-05-11T16:30:58.489Z,1.80
2019-05-11T16:33:27.652Z,2.10
2019-05-11T16:36:00.520Z,2.33
2019-05-11T16:38:29.114Z,2.53
2019-05-11T16:40:58.547Z,1.87
2019-05-11T16:43:28.131Z,2.07
2019-05-11T16:45:57.970Z,2.23
2019-05-11T16:48:27.722Z,2.30
2019-05-11T16:50:57.983Z,2.20
2019-05-11T16:53:28.495Z,2.03
2019-05-11T16:55:57.889Z,1.70
2019-05-11T16:58:27.863Z,2.00
2019-05-11T17:00:58.846Z,2.40
2019-05-11T17:03:28.127Z,2.47
2019-05-11T17:05:58.856Z,2.60
2019-05-11T17:08:28.248Z,2.23
2019-05-11T17:10:59.875Z,2.23
2019-05-11T17:13:29.068Z,2.30
2019-05-11T17:15:58.511Z,2.40
2019-05-11T17:18:28.575Z,2.30
2019-05-11T17:20:58.425Z,2.20
2019-05-11T17:23:30.975Z,1.80
2019-05-11T17:25:58.845Z,1.93
2019-05-11T17:28:28.093Z,2.23
2019-05-11T17:30:59.086Z,1.90
2019-05-11T17:33:28.634Z,2.17
2019-05-11T17:35:58.722Z,2.10
2019-05-11T17:38:28.254Z,2.10
2019-05-11T17:40:57.838Z,2.33
2019-05-11T17:43:28.116Z,2.00
2019-05-11T17:45:58.505Z,2.10
2019-05-11T17:48:28.343Z,1.97
2019-05-11T17:50:58.098Z,2.40
2019-05-11T17:53:28.542Z,2.00
2019-05-11T17:55:58.066Z,2.20
2019-05-11T17:58:28.148Z,2.00
2019-05-11T18:00:59.134Z,1.67
2019-05-11T18:03:28.307Z,1.60
2019-05-11T18:05:58.940Z,2.03
2019-05-11T18:08:30.778Z,2.00
2019-05-11T18:10:59.428Z,2.40
2019-05-11T18:13:28.691Z,2.10
2019-05-11T18:15:58.297Z,2.10
2019-05-11T18:18:29.072Z,1.47
2019-05-11T18:20:58.525Z,2.20
2019-05-11T18:23:39.716Z,2.30
2019-05-11T18:26:12.057Z,2.20
2019-05-11T18:28:43.015Z,1.93
2019-05-11T18:31:12.225Z,2.37
2019-05-11T18:33:41.428Z,2.00
2019-05-11T18:36:10.682Z,2.00
2019-05-11T18:38:39.929Z,1.80
2019-05-11T18:41:09.121Z,1.93
2019-05-11T18:43:38.312Z,1.50
2019-05-11T18:46:08.485Z,2.20
2019-05-11T18:48:38.154Z,1.93
2019-05-11T18:51:08.681Z,1.90
2019-05-11T18:53:38.002Z,2.47
2019-05-11T18:56:08.782Z,2.33
2019-05-11T18:58:52.904Z,1.90
2019-05-11T19:01:28.534Z,2.30
2019-05-11T19:04:00.022Z,2.10
2019-05-11T19:06:28.880Z,1.70
2019-05-11T19:08:58.227Z,2.00
2019-05-11T19:11:28.934Z,2.37
2019-05-11T19:13:58.356Z,2.20
2019-05-11T19:16:28.839Z,2.10
2019-05-11T19:18:58.643Z,1.90
2019-05-11T19:21:27.936Z,2.40
2019-05-11T19:23:58.121Z,2.20
2019-05-11T19:26:27.335Z,2.03
2019-05-11T19:28:57.835Z,2.83
2019-05-11T19:31:29.395Z,1.93
2019-05-11T19:33:58.588Z,2.50
2019-05-11T19:36:27.862Z,1.40
2019-05-11T19:38:58.400Z,1.70
2019-05-11T19:41:27.988Z,1.87
2019-05-11T19:43:57.718Z,1.60
2019-05-11T19:46:27.996Z,2.20
2019-05-11T19:48:58.030Z,1.63
2019-05-11T19:51:29.130Z,1.30
2019-05-11T19:53:59.353Z,1.50
2019-05-11T19:56:29.072Z,2.03
2019-05-11T19:58:58.308Z,1.47
2019-05-11T20:01:27.881Z,1.80
2019-05-11T20:03:57.146Z,1.60
2019-05-11T20:06:28.068Z,1.90
2019-05-11T20:08:58.103Z,1.80
2019-05-11T20:11:28.043Z,1.70
2019-05-11T20:13:59.007Z,2.23
2019-05-11T20:16:28.356Z,1.80
2019-05-11T20:18:57.854Z,2.00
2019-05-11T20:21:29.067Z,1.80
2019-05-11T20:23:57.997Z,1.77
2019-05-11T20:26:28.640Z,1.63
2019-05-11T20:28:58.801Z,1.80
2019-05-11T20:31:28.532Z,2.00
2019-05-11T20:33:57.703Z,2.07
2019-05-11T20:36:26.900Z,2.40
2019-05-11T20:38:56.169Z,2.00
2019-05-11T20:41:25.341Z,2.07
2019-05-11T20:43:54.562Z,1.80
2019-05-11T20:46:23.773Z,1.93
2019-05-11T20:48:52.993Z,1.80
2019-05-11T20:51:33.132Z,1.47
2019-05-11T20:53:53.170Z,1.77
2019-05-11T20:56:22.386Z,1.90
2019-05-11T20:58:58.770Z,2.20
2019-05-11T21:01:28.676Z,1.70
2019-05-11T21:03:58.703Z,2.30
2019-05-11T21:06:29.399Z,2.17
2019-05-11T21:08:58.990Z,2.17
2019-05-11T21:11:28.169Z,1.90
2019-05-11T21:13:57.359Z,1.83
2019-05-11T21:16:26.623Z,1.90
2019-05-11T21:19:14.719Z,1.83
2019-05-11T21:22:02.191Z,1.70
2019-05-11T21:24:31.446Z,2.20
2019-05-11T21:27:00.755Z,2.00
2019-05-11T21:29:31.348Z,1.97
2019-05-11T21:32:00.746Z,1.93
2019-05-11T21:34:29.945Z,2.43
2019-05-11T21:36:59.130Z,2.13
2019-05-11T21:39:28.842Z,1.87
2019-05-11T21:41:58.412Z,2.13
2019-05-11T21:44:27.897Z,2.07
2019-05-11T21:46:59.065Z,2.30
2019-05-11T21:49:28.262Z,2.33
2019-05-11T21:52:04.369Z,2.30
2019-05-11T21:54:30.238Z,2.20
2019-05-11T21:56:59.208Z,2.90
2019-05-11T21:59:28.464Z,2.27
2019-05-11T22:01:57.642Z,2.13
2019-05-11T22:04:28.532Z,2.10
2019-05-11T22:06:58.747Z,2.30
2019-05-11T22:09:28.245Z,2.47
2019-05-11T22:12:07.853Z,2.37
2019-05-11T22:14:38.448Z,2.13
2019-05-11T22:17:07.891Z,2.20
2019-05-11T22:19:40.193Z,2.60
2019-05-11T22:22:21.144Z,2.20
2019-05-11T22:24:38.836Z,2.37
2019-05-11T22:27:08.155Z,2.07
2019-05-11T22:29:37.900Z,2.27
2019-05-11T22:32:07.273Z,2.40
2019-05-11T22:34:37.818Z,2.70
2019-05-11T22:37:08.675Z,2.17
2019-05-11T22:39:38.007Z,1.93
2019-05-11T22:42:07.922Z,2.67
2019-05-11T22:44:38.644Z,2.20
2019-05-11T22:47:08.927Z,2.37
2019-05-11T22:49:38.231Z,2.30
2019-05-11T22:52:08.614Z,2.60
2019-05-11T22:54:38.415Z,2.60
2019-05-11T22:57:08.205Z,2.43
2019-05-11T22:59:38.507Z,2.17
2019-05-11T23:02:10.728Z,1.80
2019-05-11T23:04:38.714Z,2.30
2019-05-11T23:07:08.094Z,2.40
2019-05-11T23:09:38.169Z,2.23
2019-05-11T23:12:09.081Z,2.77
2019-05-11T23:14:38.376Z,1.93
2019-05-11T23:17:08.074Z,2.33
2019-05-11T23:19:38.126Z,2.30
2019-05-11T23:22:08.309Z,2.10
2019-05-11T23:24:37.710Z,2.53
2019-05-11T23:27:08.015Z,2.63
2019-05-11T23:29:38.434Z,2.13
2019-05-11T23:32:08.645Z,2.40
2019-05-11T23:34:38.727Z,2.60
2019-05-11T23:37:08.214Z,3.03
2019-05-11T23:39:38.766Z,2.37
2019-05-11T23:42:08.260Z,2.53
2019-05-11T23:44:37.454Z,2.40
2019-05-11T23:47:06.636Z,2.20
2019-05-11T23:49:35.829Z,2.37
2019-05-11T23:52:05.005Z,2.40
2019-05-11T23:54:34.482Z,2.33
2019-05-11T23:57:03.724Z,2.60
2019-05-11T23:59:32.903Z,2.37
